Clovis ASC

2021-05-08 23:20:00

  • imperial
Date Time Air Temperature Relative Humidity Dewpoint Windchill Heat Index Wind Speed Wind Dir. Rain Solar Radiation Soil Temperature Soil Temperature
2m 2m 3m 3m 5cm 10cm
US/Mountain F % F F F MPH deg in MJ/m^2 F F
max avg avg
2021-05-07 23:25:00 62.4 58.3 47.6 62.4 62.4 9.7 13.9 10.8 157.0 159.9 0.00 0.0000000 67.4 69.7
2021-05-07 23:30:00 62.1 59.3 47.8 62.1 62.1 17.1 17.1 12.1 175.3 164.3 0.00 0.0000000 67.3 69.6
2021-05-07 23:35:00 61.9 61.4 48.5 61.9 61.9 14.7 15.8 13.0 159.7 163.8 0.00 0.0000000 67.2 69.5
2021-05-07 23:40:00 61.4 63.8 49.1 61.4 61.4 13.7 15.5 13.0 164.5 162.2 0.00 0.0000000 67.1 69.5
2021-05-07 23:45:00 60.8 65.5 49.2 60.8 60.8 10.8 16.5 12.4 158.5 162.7 0.00 0.0000000 67.0 69.4
2021-05-07 23:50:00 60.5 66.4 49.2 60.5 60.5 10.5 12.1 10.1 156.0 155.3 0.00 0.0000000 66.8 69.3
2021-05-07 23:55:00 60.4 67.6 49.6 60.4 60.4 9.2 13.5 10.6 156.4 160.6 0.00 0.0000000 66.7 69.2
2021-05-08 00:00:00 59.9 69.2 49.8 59.9 59.9 7.8 12.4 9.5 170.0 163.6 0.00 0.0000000 66.6 69.1
2021-05-08 00:05:00 59.5 70.7 50.0 59.5 59.5 12.4 12.4 9.2 173.3 169.5 0.00 0.0000000 66.5 69.0
2021-05-08 00:10:00 59.6 69.9 49.8 59.6 59.6 9.7 12.4 10.4 152.6 163.3 0.00 0.0000000 66.4 69.0
2021-05-08 00:15:00 59.7 69.7 49.8 59.7 59.7 11.3 13.7 10.5 148.6 156.7 0.00 0.0000000 66.3 68.9
2021-05-08 00:20:00 59.8 69.7 49.9 59.8 59.8 9.7 13.3 10.1 159.9 156.7 0.00 0.0000000 66.2 68.8
2021-05-08 00:25:00 59.7 70.0 49.9 59.7 59.7 7.4 11.9 9.3 184.4 159.5 0.00 0.0000000 66.1 68.7
2021-05-08 00:30:00 59.5 70.9 50.0 59.5 59.5 9.6 11.0 8.6 167.4 159.8 0.00 0.0000000 66.0 68.6
2021-05-08 00:35:00 59.6 70.9 50.1 59.6 59.6 7.1 10.3 7.9 149.1 155.0 0.00 0.0000000 65.9 68.5
2021-05-08 00:40:00 59.4 71.2 50.0 59.4 59.4 7.4 8.8 7.0 147.8 150.8 0.00 0.0000000 65.9 68.4
2021-05-08 00:45:00 59.6 70.2 49.9 59.6 59.6 8.7 9.4 7.5 149.5 151.9 0.00 0.0000000 65.8 68.3
2021-05-08 00:50:00 59.8 69.6 49.8 59.8 59.8 7.4 9.0 7.7 146.4 150.5 0.00 0.0000000 65.7 68.3
2021-05-08 00:55:00 59.9 69.3 49.9 59.9 59.9 8.5 9.6 7.7 153.0 149.3 0.00 0.0000000 65.6 68.2
2021-05-08 01:00:00 59.7 69.5 49.7 59.7 59.7 8.1 8.5 6.8 148.6 154.4 0.00 0.0000000 65.5 68.1
2021-05-08 01:05:00 59.8 69.1 49.7 59.8 59.8 8.1 9.6 7.8 146.5 152.0 0.00 0.0000000 65.5 68.0
2021-05-08 01:10:00 59.7 68.8 49.5 59.7 59.7 7.4 10.3 8.0 139.3 148.2 0.00 0.0000000 65.4 67.9
2021-05-08 01:15:00 59.9 67.8 49.2 59.9 59.9 9.7 11.5 9.1 172.2 148.8 0.00 0.0000000 65.3 67.9
2021-05-08 01:20:00 59.9 67.4 49.0 59.9 59.9 8.8 10.6 9.0 163.1 151.1 0.00 0.0000000 65.2 67.8
2021-05-08 01:25:00 60.0 65.8 48.5 60.0 60.0 10.1 13.5 10.1 156.2 154.8 0.00 0.0000000 65.2 67.7
2021-05-08 01:30:00 59.9 66.5 48.7 59.9 59.9 9.6 12.1 9.5 155.6 153.8 0.00 0.0000000 65.1 67.7
2021-05-08 01:35:00 59.5 67.5 48.7 59.5 59.5 6.5 9.9 8.1 166.7 158.4 0.00 0.0000000 65.0 67.6
2021-05-08 01:40:00 59.2 68.4 48.8 59.2 59.2 7.1 8.5 7.4 155.5 159.3 0.00 0.0000000 64.9 67.5
2021-05-08 01:45:00 58.8 69.1 48.7 58.8 58.8 7.6 9.4 7.2 175.4 163.8 0.00 0.0000000 64.8 67.4
2021-05-08 01:50:00 58.8 68.8 48.5 58.8 58.8 8.7 9.2 8.1 173.2 167.4 0.00 0.0000000 64.7 67.4
2021-05-08 01:55:00 58.5 69.0 48.4 58.5 58.5 8.0 8.8 7.7 166.0 166.4 0.00 0.0000000 64.6 67.3
2021-05-08 02:00:00 58.8 68.0 48.2 58.8 58.8 9.4 11.5 8.6 173.5 166.1 0.00 0.0000000 64.5 67.2
2021-05-08 02:05:00 59.0 67.4 48.2 59.0 59.0 8.5 13.0 9.2 158.3 167.6 0.00 0.0000000 64.4 67.1
2021-05-08 02:10:00 59.3 66.6 48.1 59.3 59.3 9.6 11.7 9.7 154.4 162.9 0.00 0.0000000 64.3 67.0
2021-05-08 02:15:00 59.3 66.4 48.1 59.3 59.3 11.7 12.8 10.5 173.8 165.6 0.00 0.0000000 64.2 67.0
2021-05-08 02:20:00 59.3 66.4 48.1 59.3 59.3 10.5 12.4 10.4 171.4 161.9 0.00 0.0000000 64.1 66.9
2021-05-08 02:25:00 59.2 67.2 48.3 59.2 59.2 9.4 13.0 10.3 151.2 164.0 0.00 0.0000000 64.0 66.8
2021-05-08 02:30:00 59.0 67.9 48.4 59.0 59.0 8.1 11.0 9.3 171.1 167.0 0.00 0.0000000 63.9 66.8
2021-05-08 02:35:00 58.6 68.4 48.3 58.6 58.6 8.3 11.3 9.0 174.0 174.5 0.00 0.0000000 63.8 66.7
2021-05-08 02:40:00 58.5 69.0 48.3 58.5 58.5 10.5 11.9 9.0 182.9 177.0 0.00 0.0000000 63.7 66.6
2021-05-08 02:45:00 58.5 69.0 48.3 58.5 58.5 10.3 13.0 10.1 175.4 176.5 0.00 0.0000000 63.7 66.5
2021-05-08 02:50:00 58.5 69.8 48.7 58.5 58.5 8.8 11.9 10.3 173.9 173.9 0.00 0.0000000 63.6 66.4
2021-05-08 02:55:00 58.0 71.3 48.7 58.0 58.0 9.2 10.8 8.3 171.5 172.9 0.00 0.0000000 63.5 66.4
2021-05-08 03:00:00 57.9 71.2 48.7 57.9 57.9 9.9 12.1 8.8 179.9 176.7 0.00 0.0000000 63.4 66.3
2021-05-08 03:05:00 57.7 71.6 48.6 57.7 57.7 7.4 10.6 8.0 185.2 173.8 0.00 0.0000000 63.3 66.2
2021-05-08 03:10:00 57.6 71.4 48.4 57.6 57.6 9.0 9.7 7.8 180.4 181.2 0.00 0.0000000 63.2 66.2
2021-05-08 03:15:00 57.5 71.2 48.3 57.5 57.5 5.6 9.2 7.1 184.2 184.8 0.00 0.0000000 63.2 66.1
2021-05-08 03:20:00 57.3 71.6 48.2 57.3 57.3 8.0 8.5 7.0 204.2 188.3 0.00 0.0000000 63.1 66.0
2021-05-08 03:25:00 57.1 72.2 48.3 57.1 57.1 8.8 11.7 8.5 194.1 188.6 0.00 0.0000000 63.0 65.9
2021-05-08 03:30:00 57.3 71.2 48.0 57.3 57.3 9.2 13.5 10.1 180.0 187.7 0.00 0.0000000 62.9 65.9
2021-05-08 03:35:00 57.6 70.5 48.1 57.6 57.6 9.4 14.9 11.0 198.2 187.4 0.00 0.0000000 62.8 65.8
2021-05-08 03:40:00 57.0 71.2 47.8 57.0 57.0 11.3 15.3 10.6 190.7 188.0 0.00 0.0000000 62.7 65.7
2021-05-08 03:45:00 57.2 71.1 47.9 57.2 57.2 10.8 14.6 11.1 187.5 183.4 0.00 0.0000000 62.6 65.7
2021-05-08 03:50:00 57.2 70.8 47.8 57.2 57.2 11.2 12.4 10.7 184.7 184.8 0.00 0.0000000 62.5 65.6
2021-05-08 03:55:00 57.0 71.1 47.8 57.0 57.0 10.5 12.8 10.8 188.5 182.6 0.00 0.0000000 62.5 65.5
2021-05-08 04:00:00 56.9 71.0 47.5 56.9 56.9 10.1 13.0 10.6 183.2 182.7 0.00 0.0000000 62.4 65.4
2021-05-08 04:05:00 56.9 70.6 47.5 56.9 56.9 10.8 13.3 10.8 185.2 183.2 0.00 0.0000000 62.3 65.4
2021-05-08 04:10:00 56.7 71.2 47.5 56.7 56.7 11.0 12.6 10.7 191.4 183.0 0.00 0.0000000 62.2 65.3
2021-05-08 04:15:00 56.9 70.6 47.5 56.9 56.9 11.5 14.9 11.1 190.6 185.3 0.00 0.0000000 62.2 65.2
2021-05-08 04:20:00 56.8 70.9 47.5 56.8 56.8 12.1 14.0 11.1 183.9 189.9 0.00 0.0000000 62.1 65.1
2021-05-08 04:25:00 57.3 69.6 47.4 57.3 57.3 12.2 15.5 12.0 179.0 186.2 0.00 0.0000000 62.0 65.1
2021-05-08 04:30:00 57.3 69.1 47.3 57.3 57.3 11.0 16.0 11.3 189.7 190.4 0.00 0.0000000 61.9 65.0
2021-05-08 04:35:00 57.4 69.5 47.5 57.4 57.4 13.0 14.2 10.7 195.2 196.2 0.00 0.0000000 61.8 64.9
2021-05-08 04:40:00 57.7 68.6 47.5 57.7 57.7 12.4 13.9 12.0 195.8 192.9 0.00 0.0000000 61.8 64.9
2021-05-08 04:45:00 57.5 69.5 47.6 57.5 57.5 10.6 16.5 11.4 202.6 198.3 0.00 0.0000000 61.7 64.8
2021-05-08 04:50:00 57.5 69.7 47.7 57.5 57.5 11.0 14.9 11.9 200.0 198.2 0.00 0.0000000 61.6 64.7
2021-05-08 04:55:00 57.0 71.0 47.7 57.0 57.0 9.4 12.4 10.5 196.2 199.4 0.00 0.0000000 61.6 64.7
2021-05-08 05:00:00 56.8 71.8 47.8 56.8 56.8 10.1 12.4 10.1 212.1 202.5 0.00 0.0000000 61.5 64.6
2021-05-08 05:05:00 56.2 73.4 47.8 56.2 56.2 9.4 11.0 9.5 209.4 206.2 0.00 0.0000000 61.5 64.5
2021-05-08 05:10:00 55.7 74.7 47.8 55.7 55.7 8.8 10.8 8.9 210.4 204.3 0.00 0.0000000 61.4 64.5
2021-05-08 05:15:00 55.4 75.7 47.9 55.4 55.4 8.5 10.3 8.9 204.8 205.3 0.00 0.0000000 61.3 64.4
2021-05-08 05:20:00 55.1 76.8 47.9 55.1 55.1 9.2 9.9 8.7 217.6 208.8 0.00 0.0000000 61.3 64.3
2021-05-08 05:25:00 54.6 77.7 47.8 54.6 54.6 8.0 9.7 8.5 207.0 215.3 0.00 0.0000000 61.2 64.3
2021-05-08 05:30:00 54.2 78.5 47.6 54.2 54.2 9.0 10.1 8.4 224.8 215.0 0.00 0.0000000 61.1 64.2
2021-05-08 05:35:00 53.7 79.9 47.7 53.7 53.7 7.2 9.2 8.1 215.2 216.6 0.00 0.0000000 61.0 64.2
2021-05-08 05:40:00 53.3 81.0 47.6 53.3 53.3 8.3 8.8 7.9 219.9 220.3 0.00 0.0000000 60.9 64.1
2021-05-08 05:45:00 53.0 81.8 47.6 53.0 53.0 8.5 9.2 8.2 211.9 217.7 0.00 0.0000000 60.8 64.0
2021-05-08 05:50:00 52.8 82.2 47.6 52.8 52.8 8.0 8.8 7.9 233.1 220.7 0.00 0.0000000 60.7 64.0
2021-05-08 05:55:00 52.8 82.6 47.7 52.8 52.8 8.5 10.1 8.3 198.7 218.5 0.00 0.0002312 60.7 63.9
2021-05-08 06:00:00 53.1 81.9 47.8 53.1 53.1 8.3 9.7 8.6 218.7 217.9 0.00 0.0012504 60.5 63.8
2021-05-08 06:05:00 53.4 81.0 47.7 53.4 53.4 8.8 10.8 8.6 216.7 220.8 0.00 0.0038116 60.5 63.8
2021-05-08 06:10:00 54.0 79.7 47.9 54.0 54.0 9.4 10.5 9.0 212.4 218.3 0.00 0.0079271 60.4 63.7
2021-05-08 06:15:00 54.4 79.2 48.1 54.4 54.4 10.5 10.6 9.2 216.0 221.0 0.00 0.0124421 60.3 63.6
2021-05-08 06:20:00 54.4 79.2 48.0 54.4 54.4 8.0 10.8 9.2 235.3 227.1 0.00 0.0167201 60.2 63.5
2021-05-08 06:25:00 54.2 79.5 48.0 54.2 54.2 8.5 11.3 9.0 244.5 226.1 0.00 0.0214895 60.2 63.5
2021-05-08 06:30:00 54.1 79.8 48.0 54.1 54.1 9.7 10.5 9.0 224.5 225.4 0.00 0.0260586 60.1 63.4
2021-05-08 06:35:00 54.1 80.0 48.1 54.1 54.1 9.0 10.8 9.3 230.0 226.6 0.00 0.0304486 60.1 63.3
2021-05-08 06:40:00 54.4 79.3 48.1 54.4 54.4 12.1 12.1 9.1 225.3 226.5 0.00 0.0347600 60.0 63.3
2021-05-08 06:45:00 55.1 77.6 48.2 55.1 55.1 9.4 11.5 10.1 226.9 229.0 0.00 0.0393491 60.0 63.2
2021-05-08 06:50:00 55.9 75.2 48.2 55.9 55.9 11.5 13.3 11.2 234.6 235.2 0.00 0.0443164 60.0 63.2
2021-05-08 06:55:00 56.2 75.0 48.4 56.2 56.2 11.2 13.5 11.0 236.9 236.3 0.00 0.0490492 60.0 63.1
2021-05-08 07:00:00 56.3 74.8 48.4 56.3 56.3 12.6 13.3 11.8 241.9 237.5 0.00 0.0541801 60.1 63.1
2021-05-08 07:05:00 56.8 73.3 48.3 56.8 56.8 13.1 13.9 12.1 247.5 242.3 0.00 0.0591425 60.1 63.0
2021-05-08 07:10:00 57.4 71.8 48.4 57.4 57.4 15.3 15.3 12.1 243.4 246.3 0.00 0.0639807 60.2 63.0
2021-05-08 07:15:00 58.0 71.3 48.8 58.0 58.0 11.9 14.6 11.8 247.6 243.7 0.00 0.0691914 60.3 63.0
2021-05-08 07:20:00 58.5 71.4 49.2 58.5 58.5 9.2 14.6 12.1 241.6 242.4 0.00 0.0745262 60.4 62.9
2021-05-08 07:25:00 59.7 68.7 49.4 59.7 59.7 8.8 13.5 10.9 252.0 246.4 0.00 0.0798366 60.5 62.9
2021-05-08 07:30:00 60.7 66.4 49.5 60.7 60.7 8.8 14.2 10.6 251.0 245.0 0.00 0.0847828 60.7 62.9
2021-05-08 07:35:00 61.6 63.9 49.2 61.6 61.6 15.6 16.2 13.4 246.6 238.7 0.00 0.0898024 60.9 62.9
2021-05-08 07:40:00 62.3 62.6 49.4 62.3 62.3 15.3 19.4 13.9 223.6 240.8 0.00 0.0954412 61.1 62.9
2021-05-08 07:45:00 62.7 61.6 49.3 62.7 62.7 16.9 18.1 15.3 226.4 234.4 0.00 0.1009374 61.3 62.9
2021-05-08 07:50:00 63.1 60.6 49.2 63.1 63.1 16.9 20.3 16.6 234.4 231.9 0.00 0.1062800 61.5 63.0
2021-05-08 07:55:00 63.6 57.6 48.4 63.6 63.6 19.8 20.6 17.0 230.2 235.7 0.00 0.1116608 61.8 63.0
2021-05-08 08:00:00 64.3 57.7 49.1 64.3 64.3 15.5 20.3 16.2 231.3 230.5 0.00 0.1175071 62.0 63.1
2021-05-08 08:05:00 64.9 55.3 48.5 64.9 64.9 15.8 21.4 17.5 236.1 228.7 0.00 0.1236944 62.2 63.1
2021-05-08 08:10:00 65.5 53.6 48.2 65.5 65.5 17.6 23.5 18.5 239.7 235.8 0.00 0.1295773 62.5 63.2
2021-05-08 08:15:00 65.8 53.0 48.2 65.8 65.8 17.4 20.6 17.6 226.9 232.4 0.00 0.1353528 62.8 63.3
2021-05-08 08:20:00 66.4 49.7 47.0 66.4 66.4 18.0 24.2 18.7 241.2 233.3 0.00 0.1414939 63.1 63.4
2021-05-08 08:25:00 67.4 48.1 47.1 67.4 67.4 17.6 20.1 17.7 235.5 236.5 0.00 0.1478440 63.4 63.5
2021-05-08 08:30:00 67.9 44.1 45.2 67.9 67.9 16.9 22.1 18.1 248.9 238.1 0.00 0.1524767 63.7 63.6
2021-05-08 08:35:00 68.8 42.1 44.8 68.8 68.8 20.6 21.7 18.8 246.3 241.9 0.00 0.1611111 64.0 63.7
2021-05-08 08:40:00 69.7 39.8 44.2 69.7 69.7 19.4 21.5 18.5 252.7 248.2 0.00 0.1660018 64.3 63.8
2021-05-08 08:45:00 70.7 38.9 44.4 70.7 70.7 15.5 20.5 17.3 230.5 243.0 0.00 0.1727622 64.5 63.9
2021-05-08 08:50:00 71.2 36.0 42.8 71.2 71.2 14.9 20.6 16.8 269.4 242.9 0.00 0.1766081 64.8 64.1
2021-05-08 08:55:00 71.7 32.7 40.8 71.7 71.7 16.5 21.7 18.9 247.5 251.4 0.00 0.1679269 65.1 64.2
2021-05-08 09:00:00 72.4 31.0 40.0 72.4 72.4 17.1 20.8 17.9 236.1 250.8 0.00 0.1896977 65.4 64.3
2021-05-08 09:05:00 73.0 29.9 39.6 73.0 73.0 15.1 22.4 18.0 240.8 252.8 0.00 0.1968606 65.6 64.5
2021-05-08 09:10:00 73.9 29.6 40.1 73.9 73.9 13.7 20.6 15.8 241.8 257.4 0.00 0.1793356 65.9 64.7
2021-05-08 09:15:00 73.7 29.2 39.6 73.7 73.7 17.2 23.2 18.2 262.6 260.1 0.00 0.1964044 66.1 64.8
2021-05-08 09:20:00 74.2 26.9 38.0 74.2 74.2 21.0 21.4 18.3 255.0 262.9 0.00 0.1920693 66.4 65.0
2021-05-08 09:25:00 74.2 25.0 36.1 74.2 74.2 16.4 22.4 19.1 270.9 257.8 0.00 0.1907689 66.7 65.2
2021-05-08 09:30:00 74.8 22.8 34.3 74.8 74.8 19.8 23.7 18.6 248.7 258.6 0.00 0.2228806 67.0 65.4
2021-05-08 09:35:00 75.0 21.4 32.9 75.0 75.0 17.8 24.0 19.3 269.1 264.2 0.00 0.1926991 67.3 65.6
2021-05-08 09:40:00 75.5 21.1 32.9 75.5 75.5 18.1 21.9 18.4 268.2 265.4 0.00 0.1993588 67.6 65.8
2021-05-08 09:45:00 75.9 21.6 33.8 75.9 75.9 16.2 20.1 17.0 264.5 261.5 0.00 0.2045902 67.9 66.0
2021-05-08 09:50:00 75.9 19.9 31.8 75.9 75.9 15.1 21.4 18.5 264.8 264.9 0.00 0.2318473 68.2 66.2
2021-05-08 09:55:00 76.0 19.9 31.9 76.0 76.0 21.2 22.8 18.9 273.6 262.4 0.00 0.2287128 68.5 66.4
2021-05-08 10:00:00 76.9 19.8 32.6 76.9 76.9 20.1 23.0 18.6 272.1 272.0 0.00 0.2504736 68.8 66.6
2021-05-08 10:05:00 76.2 20.8 33.2 76.2 76.2 21.0 21.0 17.7 277.2 274.7 0.00 0.2178178 69.2 66.8
2021-05-08 10:10:00 76.2 19.8 31.9 76.2 76.2 20.6 21.5 18.6 264.1 275.1 0.00 0.2567586 69.5 67.0
2021-05-08 10:15:00 76.5 19.9 32.4 76.5 76.5 16.0 23.9 19.9 262.7 272.3 0.00 0.2602364 69.9 67.2
2021-05-08 10:20:00 77.0 18.9 31.4 77.0 77.0 19.8 23.2 18.0 271.0 264.7 0.00 0.2624048 70.2 67.5
2021-05-08 10:25:00 77.5 17.3 29.7 77.5 77.5 15.1 22.6 17.2 274.9 272.2 0.00 0.2534429 70.6 67.7
2021-05-08 10:30:00 77.9 16.8 29.3 77.9 77.9 18.9 19.9 17.4 267.6 268.1 0.00 0.2551995 71.0 67.9
2021-05-08 10:35:00 78.5 15.8 28.2 78.5 78.5 15.5 24.9 18.1 248.2 265.1 0.00 0.2731704 71.3 68.1
2021-05-08 10:40:00 79.1 15.2 27.8 79.1 79.1 16.2 22.8 17.6 268.5 264.5 0.00 0.2774248 71.7 68.4
2021-05-08 10:45:00 78.2 14.3 25.6 78.2 78.2 20.5 25.8 20.5 263.7 262.6 0.00 0.2726761 71.9 68.6
2021-05-08 10:50:00 79.0 12.0 22.1 79.0 79.0 21.5 26.0 19.5 272.9 258.7 0.00 0.2824044 72.1 68.9
2021-05-08 10:55:00 79.0 10.9 19.8 79.0 79.0 21.9 24.9 21.1 255.6 273.2 0.00 0.2915064 72.1 69.1
2021-05-08 11:00:00 79.4 11.6 21.5 79.4 79.4 23.5 25.8 20.5 275.8 276.8 0.00 0.2973388 72.1 69.4
2021-05-08 11:05:00 79.2 12.3 22.9 79.2 79.2 15.1 23.9 18.9 256.6 263.3 0.00 0.2779725 72.0 69.6
2021-05-08 11:10:00 80.2 11.4 21.7 80.2 80.2 14.6 23.0 16.5 250.9 255.2 0.00 0.2523542 71.9 69.9
2021-05-08 11:15:00 81.2 10.9 21.4 81.2 81.2 21.2 24.2 19.8 289.6 261.9 0.00 0.3141595 71.8 70.1
2021-05-08 11:20:00 80.5 11.9 22.9 80.5 80.5 19.0 27.4 20.2 267.3 270.1 0.00 0.2644248 71.8 70.4
2021-05-08 11:25:00 80.0 11.9 22.5 80.0 80.0 17.6 24.2 18.3 256.2 262.5 0.00 0.2914807 71.8 70.6
2021-05-08 11:30:00 80.6 11.6 22.5 80.6 80.6 20.6 22.1 17.3 249.6 254.6 0.00 0.3039333 71.8 70.9
2021-05-08 11:35:00 80.7 12.1 23.5 80.7 80.7 17.6 27.6 21.0 247.8 248.8 0.00 0.3125699 71.9 71.1
2021-05-08 11:40:00 80.6 10.6 20.4 80.6 80.6 25.6 26.9 20.1 247.9 253.3 0.00 0.2905286 71.9 71.4
2021-05-08 11:45:00 81.7 11.3 22.8 81.7 81.7 23.7 28.3 20.4 246.6 242.8 0.00 0.3178900 71.9 71.6
2021-05-08 11:50:00 81.9 10.0 19.9 81.9 81.9 22.3 27.1 21.2 239.6 243.1 0.00 0.3319367 72.0 71.9
2021-05-08 11:55:00 82.6 9.0 18.1 82.6 82.6 26.2 31.7 21.4 270.4 252.5 0.00 0.3277268 72.1 72.1
2021-05-08 12:00:00 81.7 10.7 21.5 81.7 81.7 20.1 29.0 22.5 230.1 244.6 0.00 0.3238635 72.2 72.4
2021-05-08 12:05:00 81.6 9.1 17.5 81.6 81.6 22.6 29.0 21.1 263.3 245.7 0.00 0.3178815 72.4 72.6
2021-05-08 12:10:00 82.3 9.3 18.7 82.3 82.3 17.2 29.8 22.5 248.0 247.7 0.00 0.3166193 72.8 72.8
2021-05-08 12:15:00 82.8 8.1 15.8 82.8 82.8 22.4 28.9 20.6 245.3 242.8 0.00 0.3235658 73.3 73.0
2021-05-08 12:20:00 83.1 7.8 15.2 83.1 83.1 29.0 32.3 26.7 262.6 253.0 0.00 0.3232996 74.0 73.3
2021-05-08 12:25:00 82.6 7.3 13.3 82.6 82.6 20.6 29.8 22.5 256.4 250.8 0.00 0.3215415 74.6 73.5
2021-05-08 12:30:00 83.7 7.5 14.6 83.7 83.7 18.0 27.6 22.6 241.4 255.7 0.00 0.3214364 75.2 73.7
2021-05-08 12:35:00 83.8 6.2 10.5 83.8 83.8 18.0 25.5 17.1 253.1 257.8 0.00 0.3213719 75.9 73.9
2021-05-08 12:40:00 84.3 6.1 10.6 84.3 84.3 28.3 34.0 28.2 238.8 246.0 0.00 0.3254664 76.5 74.1
2021-05-08 12:45:00 83.0 6.4 10.5 83.0 83.0 18.0 30.5 21.9 254.9 236.6 0.00 0.3245882 77.1 74.3
2021-05-08 12:50:00 83.6 5.5 7.5 83.6 83.6 27.6 35.3 25.9 252.8 245.1 0.00 0.3266878 77.7 74.4
2021-05-08 12:55:00 83.8 6.3 11.0 83.8 83.8 31.2 31.2 24.5 249.5 248.7 0.00 0.3250614 78.2 74.6
2021-05-08 13:00:00 84.4 6.6 12.2 84.4 84.4 27.1 31.2 24.4 212.3 235.0 0.00 0.3235202 78.7 74.8
2021-05-08 13:05:00 84.4 5.3 7.2 84.4 84.4 32.3 32.3 22.2 257.5 244.1 0.00 0.3241483 79.2 75.0
2021-05-08 13:10:00 84.1 5.9 9.5 84.1 84.1 25.5 29.9 23.5 248.3 244.8 0.00 0.3234520 79.6 75.1
2021-05-08 13:15:00 83.6 5.6 8.1 83.6 83.6 21.7 29.2 24.1 250.0 253.3 0.00 0.3212495 80.1 75.3
2021-05-08 13:20:00 83.9 7.3 14.3 83.9 83.9 24.2 29.4 21.3 220.1 249.2 0.00 0.3200459 80.5 75.5
2021-05-08 13:25:00 83.1 7.5 14.3 83.1 83.1 14.9 29.6 22.7 243.9 229.3 0.00 0.3200037 80.9 75.7
2021-05-08 13:30:00 85.3 5.2 7.7 85.3 85.3 23.3 28.9 22.8 277.7 252.9 0.00 0.3197179 81.3 75.9
2021-05-08 13:35:00 86.3 6.0 11.4 86.3 86.3 27.6 27.8 21.2 227.7 247.0 0.00 0.3186737 81.7 76.1
2021-05-08 13:40:00 83.1 6.8 12.1 83.1 83.1 22.3 32.8 25.1 234.5 230.5 0.00 0.3174722 82.1 76.3
2021-05-08 13:45:00 83.9 5.2 6.6 83.9 83.9 25.8 32.8 26.5 244.5 236.3 0.00 0.3168272 82.4 76.5
2021-05-08 13:50:00 84.6 6.3 11.3 84.6 84.6 33.0 33.0 24.0 233.0 242.0 0.00 0.3129633 82.7 76.7
2021-05-08 13:55:00 84.5 5.4 7.9 84.5 84.5 29.6 35.8 25.0 237.5 235.4 0.00 0.3110278 83.0 76.9
2021-05-08 14:00:00 84.8 5.8 9.5 84.8 84.8 29.6 32.6 23.9 251.1 252.6 0.00 0.3082576 83.3 77.1
2021-05-08 14:05:00 83.4 8.7 17.9 83.4 83.4 20.1 31.0 19.8 218.2 234.0 0.00 0.3043809 83.6 77.3
2021-05-08 14:10:00 84.1 8.4 17.4 84.1 84.1 15.8 27.6 23.2 219.5 239.9 0.00 0.3024229 83.8 77.5
2021-05-08 14:15:00 84.9 6.2 11.3 84.9 84.9 25.5 27.4 21.1 254.6 247.3 0.00 0.2997333 84.1 77.6
2021-05-08 14:20:00 84.5 7.2 14.5 84.5 84.5 22.6 25.5 20.7 238.3 241.8 0.00 0.2959004 84.3 77.8
2021-05-08 14:25:00 85.3 6.0 10.8 85.3 85.3 24.4 31.2 24.6 252.6 245.3 0.00 0.2956045 84.5 78.0
2021-05-08 14:30:00 84.8 6.0 10.3 84.8 84.8 23.7 29.8 23.8 231.2 234.4 0.00 0.2926516 84.8 78.1
2021-05-08 14:35:00 83.9 7.8 15.8 83.9 83.9 19.4 31.7 23.6 231.1 236.4 0.00 0.2893355 85.0 78.3
2021-05-08 14:40:00 83.5 7.5 14.4 83.5 83.5 23.7 27.2 18.7 255.3 227.2 0.00 0.2847610 85.2 78.5
2021-05-08 14:45:00 85.1 6.2 11.3 85.1 85.1 30.1 30.1 21.7 261.4 262.1 0.00 0.2823219 85.4 78.6
2021-05-08 14:50:00 84.5 6.6 12.3 84.5 84.5 21.7 31.7 20.5 269.3 259.5 0.00 0.2782102 85.6 78.8
2021-05-08 14:55:00 85.2 6.1 11.1 85.2 85.2 22.3 32.8 26.4 260.0 260.9 0.00 0.2766157 85.8 78.9
2021-05-08 15:00:00 84.4 6.1 10.5 84.4 84.4 14.7 26.4 19.8 272.2 251.2 0.00 0.2723922 85.9 79.1
2021-05-08 15:05:00 84.7 6.2 11.1 84.7 84.7 17.8 33.3 23.9 270.4 263.8 0.00 0.2693599 86.1 79.3
2021-05-08 15:10:00 85.0 6.6 12.8 85.0 85.0 20.6 30.8 20.4 236.7 259.3 0.00 0.2648933 86.2 79.4
2021-05-08 15:15:00 84.9 6.8 13.4 84.9 84.9 26.0 33.3 27.7 240.3 238.0 0.00 0.2632160 86.3 79.5
2021-05-08 15:20:00 85.2 6.1 10.9 85.2 85.2 21.2 26.9 19.6 243.0 251.5 0.00 0.2585421 86.4 79.6
2021-05-08 15:25:00 85.0 5.6 8.9 85.0 85.0 25.6 30.8 25.5 247.6 253.2 0.00 0.2557341 86.5 79.8
2021-05-08 15:30:00 84.9 5.9 10.1 84.9 84.9 20.5 29.8 21.6 240.6 248.8 0.00 0.2502751 86.6 79.9
2021-05-08 15:35:00 85.3 5.6 9.1 85.3 85.3 26.9 30.5 22.5 243.2 244.1 0.00 0.2473331 86.7 80.0
2021-05-08 15:40:00 85.6 5.5 9.2 85.6 85.6 25.8 34.6 25.2 263.9 261.5 0.00 0.2434457 86.7 80.1
2021-05-08 15:45:00 85.3 5.5 8.7 85.3 85.3 17.6 28.7 22.4 258.6 254.9 0.00 0.2383133 86.8 80.2
2021-05-08 15:50:00 86.1 6.3 12.3 86.1 86.1 25.1 25.3 19.6 229.2 256.3 0.00 0.2338056 86.8 80.3
2021-05-08 15:55:00 85.0 6.0 10.7 85.0 85.0 24.4 31.5 25.5 270.4 258.8 0.00 0.2284715 86.8 80.4
2021-05-08 16:00:00 84.8 5.7 9.4 84.8 84.8 18.3 28.7 23.7 260.5 269.0 0.00 0.2245700 86.9 80.5
2021-05-08 16:05:00 84.8 5.5 8.3 84.8 84.8 19.4 28.5 20.6 243.5 251.8 0.00 0.2201580 86.9 80.5
2021-05-08 16:10:00 84.8 6.4 11.8 84.8 84.8 16.4 31.7 24.8 250.4 251.1 0.00 0.2153442 86.9 80.6
2021-05-08 16:15:00 84.8 5.9 10.2 84.8 84.8 21.4 21.7 17.9 250.1 242.6 0.00 0.2107496 86.9 80.7
2021-05-08 16:20:00 84.9 5.8 9.6 84.9 84.9 23.2 26.4 23.0 239.0 253.4 0.00 0.2053826 86.8 80.7
2021-05-08 16:25:00 84.8 5.5 8.6 84.8 84.8 31.2 31.2 26.6 273.0 253.8 0.00 0.2007298 86.8 80.8
2021-05-08 16:30:00 84.4 5.6 8.5 84.4 84.4 29.4 33.7 26.4 263.6 267.2 0.00 0.1961812 86.8 80.9
2021-05-08 16:35:00 84.2 6.8 12.7 84.2 84.2 18.9 29.6 23.5 222.8 246.1 0.00 0.1872528 86.7 80.9
2021-05-08 16:40:00 83.9 5.8 8.9 83.9 83.9 17.1 21.4 17.9 252.0 246.7 0.00 0.1616713 86.6 80.9
2021-05-08 16:45:00 84.4 6.0 10.0 84.4 84.4 18.1 28.3 23.4 253.8 262.6 0.00 0.1727497 86.5 81.0
2021-05-08 16:50:00 84.4 5.8 9.4 84.4 84.4 19.2 30.8 22.8 266.1 265.1 0.00 0.1568313 86.5 81.0
2021-05-08 16:55:00 84.9 5.6 8.9 84.9 84.9 28.1 31.7 23.8 263.1 259.1 0.00 0.1644302 86.3 81.0
2021-05-08 17:00:00 84.1 5.8 9.0 84.1 84.1 25.8 29.6 24.7 264.0 263.1 0.00 0.1468541 86.2 81.0
2021-05-08 17:05:00 84.0 6.6 11.9 84.0 84.0 21.2 29.6 20.8 241.1 256.3 0.00 0.1316216 86.0 81.0
2021-05-08 17:10:00 84.4 6.1 10.5 84.4 84.4 19.6 22.3 17.9 233.8 244.0 0.00 0.1616216 85.9 81.0
2021-05-08 17:15:00 84.2 5.5 7.9 84.2 84.2 24.4 29.0 23.3 259.9 251.3 0.00 0.1603853 85.7 81.0
2021-05-08 17:20:00 84.5 5.5 8.3 84.5 84.5 21.7 27.8 22.5 263.7 261.1 0.00 0.1487172 85.5 81.0
2021-05-08 17:25:00 83.7 5.5 7.7 83.7 83.7 22.4 31.0 24.3 252.3 259.6 0.00 0.1379753 85.4 80.9
2021-05-08 17:30:00 83.8 5.3 7.1 83.8 83.8 26.0 26.0 21.6 273.3 261.8 0.00 0.1370734 85.3 80.9
2021-05-08 17:35:00 83.6 5.5 7.7 83.6 83.6 27.8 29.0 23.7 275.7 273.4 0.00 0.1309493 85.1 80.9
2021-05-08 17:40:00 83.1 5.4 7.0 83.1 83.1 21.4 32.1 25.5 269.1 261.1 0.00 0.0956480 85.0 80.9
2021-05-08 17:45:00 82.5 5.2 5.4 82.5 82.5 25.5 28.3 23.2 262.3 265.5 0.00 0.0875591 84.8 80.8
2021-05-08 17:50:00 81.5 5.9 7.8 81.5 81.5 23.7 31.2 25.1 265.8 275.3 0.00 0.0593804 84.6 80.8
2021-05-08 17:55:00 81.1 6.2 8.5 81.1 81.1 19.9 29.0 22.8 273.6 274.7 0.00 0.0499298 84.3 80.7
2021-05-08 18:00:00 81.7 6.6 10.2 81.7 81.7 26.7 29.8 25.5 281.1 270.8 0.00 0.0939418 84.0 80.7
2021-05-08 18:05:00 81.4 6.6 10.0 81.4 81.4 16.0 30.8 24.7 276.9 265.9 0.00 0.0754778 83.7 80.6
2021-05-08 18:10:00 81.9 6.6 10.5 81.9 81.9 23.3 26.4 22.6 256.3 273.1 0.00 0.0950425 83.4 80.5
2021-05-08 18:15:00 82.2 6.1 8.9 82.2 82.2 25.3 25.5 21.2 257.6 273.2 0.00 0.0910155 83.0 80.4
2021-05-08 18:20:00 82.2 6.2 9.4 82.2 82.2 23.7 26.7 22.7 262.3 271.1 0.00 0.0853900 82.8 80.3
2021-05-08 18:25:00 82.2 6.2 9.2 82.2 82.2 24.9 27.1 22.3 267.4 266.8 0.00 0.0871024 82.5 80.2
2021-05-08 18:30:00 82.1 6.1 8.7 82.1 82.1 26.0 28.3 24.5 275.5 271.5 0.00 0.0810318 82.3 80.1
2021-05-08 18:35:00 81.9 6.2 9.0 81.9 81.9 24.9 26.7 24.0 272.7 266.5 0.00 0.0769370 82.0 80.0
2021-05-08 18:40:00 81.9 6.2 9.1 81.9 81.9 26.9 27.8 22.1 279.0 269.3 0.00 0.0702367 81.8 79.9
2021-05-08 18:45:00 81.4 6.8 10.8 81.4 81.4 19.8 28.1 23.2 247.3 267.5 0.00 0.0631035 81.6 79.8
2021-05-08 18:50:00 81.1 6.7 10.3 81.1 81.1 23.9 24.8 20.5 256.4 262.9 0.00 0.0555402 81.4 79.7
2021-05-08 18:55:00 80.9 6.8 10.2 80.9 80.9 21.5 24.8 19.8 267.3 265.0 0.00 0.0477935 81.1 79.6
2021-05-08 19:00:00 80.5 7.2 11.3 80.5 80.5 19.0 24.4 20.7 263.3 264.3 0.00 0.0364091 80.9 79.4
2021-05-08 19:05:00 80.0 7.6 12.2 80.0 80.0 16.4 23.0 18.8 265.7 264.3 0.00 0.0284377 80.7 79.3
2021-05-08 19:10:00 79.4 7.7 12.2 79.4 79.4 14.9 18.7 15.5 242.2 260.2 0.00 0.0249356 80.4 79.2
2021-05-08 19:15:00 79.0 7.7 11.9 79.0 79.0 14.6 19.4 14.4 261.3 257.9 0.00 0.0218390 80.2 79.1
2021-05-08 19:20:00 78.5 8.0 12.3 78.5 78.5 11.9 16.4 13.6 269.1 257.7 0.00 0.0145027 79.9 79.0
2021-05-08 19:25:00 77.5 8.5 13.0 77.5 77.5 9.6 12.8 11.1 266.0 258.5 0.00 0.0123394 79.6 78.8
2021-05-08 19:30:00 76.9 8.5 12.5 76.9 76.9 11.0 12.1 10.5 244.9 256.9 0.00 0.0083833 79.3 78.7
2021-05-08 19:35:00 76.1 8.8 12.6 76.1 76.1 9.9 12.2 10.3 254.3 253.1 0.00 0.0047177 79.0 78.5
2021-05-08 19:40:00 75.7 8.8 12.2 75.7 75.7 10.8 13.0 10.6 277.9 257.3 0.00 0.0020168 78.7 78.4
2021-05-08 19:45:00 74.6 9.4 13.0 74.6 74.6 7.8 11.3 9.4 279.1 263.8 0.00 0.0001202 78.3 78.3
2021-05-08 19:50:00 73.6 10.0 13.7 73.6 73.6 7.8 9.6 8.7 247.0 262.8 0.00 0.0000000 78.0 78.1
2021-05-08 19:55:00 72.3 10.6 13.9 72.3 72.3 7.4 9.0 8.0 262.2 256.4 0.00 0.0000000 77.6 77.9
2021-05-08 20:00:00 71.1 11.3 14.5 71.1 71.1 6.0 7.4 6.6 268.8 266.2 0.00 0.0000000 77.3 77.7
2021-05-08 20:05:00 70.3 11.6 14.5 70.3 70.3 7.1 7.2 6.7 259.9 262.2 0.00 0.0000000 76.9 77.6
2021-05-08 20:10:00 69.1 12.4 15.1 69.1 69.1 6.0 6.9 6.0 265.0 265.5 0.00 0.0000000 76.6 77.4
2021-05-08 20:15:00 67.9 13.0 15.2 67.9 67.9 6.2 6.5 6.0 258.7 258.2 0.00 0.0000000 76.3 77.2
2021-05-08 20:20:00 67.0 13.7 15.6 67.0 67.0 5.1 6.3 5.5 266.8 264.1 0.00 0.0000000 75.9 77.0
2021-05-08 20:25:00 65.9 14.0 15.2 65.9 65.9 5.1 5.6 5.1 265.4 268.5 0.00 0.0000000 75.6 76.8
2021-05-08 20:30:00 65.2 14.2 15.0 65.2 65.2 5.6 5.6 5.0 248.5 259.0 0.00 0.0000000 75.2 76.7
2021-05-08 20:35:00 64.6 14.4 15.0 64.6 64.6 5.8 5.8 5.4 259.2 254.4 0.00 0.0000000 74.9 76.5
2021-05-08 20:40:00 64.9 14.5 15.3 64.9 64.9 4.9 6.0 5.3 269.2 259.9 0.00 0.0000000 74.5 76.2
2021-05-08 20:45:00 64.4 15.1 15.8 64.4 64.4 4.9 5.3 4.8 272.9 271.0 0.00 0.0000000 74.2 76.0
2021-05-08 20:50:00 64.1 15.0 15.5 64.1 64.1 6.2 6.2 5.5 266.3 272.8 0.00 0.0000000 73.9 75.8
2021-05-08 20:55:00 63.3 15.2 15.2 63.3 63.3 4.9 6.2 5.6 271.2 269.0 0.00 0.0000000 73.5 75.6
2021-05-08 21:00:00 62.5 15.1 14.4 62.5 62.5 5.5 5.5 5.0 257.1 267.1 0.00 0.0000000 73.2 75.4
2021-05-08 21:05:00 61.8 15.7 14.6 61.8 61.8 4.9 5.6 5.2 269.1 263.6 0.00 0.0000000 72.9 75.2
2021-05-08 21:10:00 61.2 16.0 14.5 61.2 61.2 6.0 6.0 5.2 278.7 277.3 0.00 0.0000000 72.6 75.0
2021-05-08 21:15:00 61.0 16.0 14.5 61.0 61.0 6.0 6.5 6.0 263.4 277.8 0.00 0.0000000 72.3 74.8
2021-05-08 21:20:00 60.7 16.4 14.8 60.7 60.7 4.9 6.2 5.6 273.1 276.9 0.00 0.0000000 72.0 74.6
2021-05-08 21:25:00 60.2 16.5 14.5 60.2 60.2 5.8 6.3 5.5 279.6 277.9 0.00 0.0000000 71.7 74.4
2021-05-08 21:30:00 59.7 17.1 14.9 59.7 59.7 5.6 6.3 5.8 269.4 277.8 0.00 0.0000000 71.4 74.2
2021-05-08 21:35:00 59.4 17.3 14.9 59.4 59.4 5.5 5.8 5.5 275.7 272.4 0.00 0.0000000 71.2 74.0
2021-05-08 21:40:00 59.0 17.4 14.8 59.0 59.0 6.2 6.2 5.7 281.1 276.7 0.00 0.0000000 70.9 73.8
2021-05-08 21:45:00 58.9 17.6 14.9 58.9 58.9 5.6 6.2 5.7 268.1 275.7 0.00 0.0000000 70.6 73.7
2021-05-08 21:50:00 59.1 17.1 14.4 59.1 59.1 6.9 7.1 6.4 295.7 277.2 0.00 0.0000000 70.4 73.5
2021-05-08 21:55:00 59.5 17.0 14.6 59.5 59.5 7.2 7.2 6.7 279.6 277.5 0.00 0.0000000 70.1 73.3
2021-05-08 22:00:00 59.6 17.0 14.7 59.6 59.6 6.7 7.2 6.8 283.4 278.1 0.00 0.0000000 69.9 73.1
2021-05-08 22:05:00 59.0 17.4 14.8 59.0 59.0 6.9 7.8 6.9 280.5 276.6 0.00 0.0000000 69.6 72.9
2021-05-08 22:10:00 58.5 17.9 15.0 58.5 58.5 7.1 8.0 7.2 286.5 274.7 0.00 0.0000000 69.4 72.7
2021-05-08 22:15:00 58.9 17.2 14.4 58.9 58.9 8.8 8.8 7.7 292.3 281.0 0.00 0.0000000 69.2 72.5
2021-05-08 22:20:00 60.7 15.4 13.4 60.7 60.7 9.4 9.9 8.9 294.8 285.9 0.00 0.0000000 68.9 72.4
2021-05-08 22:25:00 61.4 14.7 12.8 61.4 61.4 8.3 10.1 8.9 290.9 288.1 0.00 0.0000000 68.7 72.2
2021-05-08 22:30:00 62.0 14.3 12.6 62.0 62.0 8.5 9.6 8.4 290.4 285.9 0.00 0.0000000 68.6 72.0
2021-05-08 22:35:00 62.2 14.0 12.4 62.2 62.2 9.6 9.6 8.4 290.9 287.7 0.00 0.0000000 68.3 71.8
2021-05-08 22:40:00 63.2 13.9 13.0 63.2 63.2 11.2 11.2 9.4 295.7 294.5 0.00 0.0000000 68.2 71.7
2021-05-08 22:45:00 63.3 13.9 13.1 63.3 63.3 10.1 11.3 9.7 302.6 294.7 0.00 0.0000000 68.0 71.5
2021-05-08 22:50:00 63.4 14.0 13.4 63.4 63.4 10.5 11.7 9.9 297.1 298.9 0.00 0.0000000 67.8 71.3
2021-05-08 22:55:00 62.3 14.8 13.7 62.3 62.3 7.8 9.9 8.9 302.4 292.7 0.00 0.0000000 67.7 71.2
2021-05-08 23:00:00 61.7 15.5 14.2 61.7 61.7 8.7 9.9 9.0 317.8 304.6 0.00 0.0000000 67.6 71.0
2021-05-08 23:05:00 61.9 16.2 15.5 61.9 61.9 9.2 11.5 10.1 328.0 315.9 0.00 0.0000000 67.5 70.9
2021-05-08 23:10:00 61.8 16.5 15.7 61.8 61.8 11.2 12.8 10.7 319.8 317.6 0.00 0.0000000 67.3 70.8
2021-05-08 23:15:00 61.7 16.7 16.1 61.7 61.7 11.0 11.9 10.3 315.2 315.4 0.00 0.0000000 67.2 70.6
2021-05-08 23:20:00 61.5 17.0 16.3 61.5 61.5 10.3 11.3 9.7 327.5 318.6 0.00 0.0000000 67.1 70.5

Data is courtesy of the NM Climate Center. DO NOT USE IN LEGAL PROCEEDINGS.